createdAt,value
2022-07-30T00:00:24.833Z,3.77
2022-07-30T00:02:52.504Z,2.33
2022-07-30T00:05:21.606Z,4.63
2022-07-30T00:07:48.298Z,4.10
2022-07-30T00:10:15.058Z,4.40
2022-07-30T00:12:41.682Z,3.67
2022-07-30T00:15:08.806Z,2.77
2022-07-30T00:17:35.479Z,2.33
2022-07-30T00:20:02.949Z,2.30
2022-07-30T00:22:30.761Z,4.13
2022-07-30T00:24:57.630Z,6.47
2022-07-30T00:27:24.125Z,5.30
2022-07-30T00:29:50.602Z,4.23
2022-07-30T00:32:17.361Z,3.90
2022-07-30T00:34:43.818Z,5.37
2022-07-30T00:37:10.281Z,4.57
2022-07-30T00:39:36.940Z,5.37
2022-07-30T00:42:04.479Z,2.40
2022-07-30T00:44:31.394Z,4.20
2022-07-30T00:46:58.412Z,5.53
2022-07-30T00:49:25.583Z,6.50
2022-07-30T00:51:52.470Z,4.43
2022-07-30T00:54:19.418Z,9.00
2022-07-30T00:56:47.979Z,2.63
2022-07-30T00:59:14.537Z,7.33
2022-07-30T01:01:41.241Z,4.83
2022-07-30T01:04:13.528Z,3.33
2022-07-30T01:06:40.386Z,3.50
2022-07-30T01:09:07.751Z,2.07
2022-07-30T01:11:38.657Z,4.53
2022-07-30T01:14:06.707Z,6.67
2022-07-30T01:16:34.961Z,4.10
2022-07-30T01:19:25.228Z,7.37
2022-07-30T01:22:03.637Z,5.07
2022-07-30T01:24:43.437Z,2.70
2022-07-30T01:27:11.373Z,3.73
2022-07-30T01:29:39.472Z,4.10
2022-07-30T01:32:08.541Z,3.77
2022-07-30T01:34:36.303Z,5.43
2022-07-30T01:37:04.451Z,1.77
2022-07-30T01:39:31.926Z,3.60
2022-07-30T01:41:58.975Z,6.40
2022-07-30T01:44:26.916Z,4.83
2022-07-30T01:46:55.208Z,2.87
2022-07-30T01:49:23.177Z,6.60
2022-07-30T01:51:50.853Z,3.90
2022-07-30T01:54:18.379Z,2.93
2022-07-30T01:56:46.293Z,4.17
2022-07-30T01:59:14.524Z,3.67
2022-07-30T02:01:41.067Z,5.73
2022-07-30T02:04:07.611Z,3.00
2022-07-30T02:06:38.428Z,7.87
2022-07-30T02:09:10.898Z,3.43
2022-07-30T02:12:01.125Z,2.90
2022-07-30T02:14:31.123Z,3.57
2022-07-30T02:16:59.139Z,1.73
2022-07-30T02:19:34.578Z,2.67
2022-07-30T02:22:08.734Z,7.53
2022-07-30T02:24:37.523Z,3.57
2022-07-30T02:27:14.196Z,6.93
2022-07-30T02:29:42.212Z,3.73
2022-07-30T02:32:11.806Z,4.90
2022-07-30T02:34:40.465Z,7.90
2022-07-30T02:37:09.138Z,3.87
2022-07-30T02:39:36.437Z,7.83
2022-07-30T02:42:04.567Z,2.57
2022-07-30T02:44:31.358Z,5.53
2022-07-30T02:46:59.185Z,2.60
2022-07-30T02:49:33.561Z,2.00
2022-07-30T02:52:00.617Z,5.10
2022-07-30T02:54:29.973Z,4.50
2022-07-30T02:56:59.693Z,1.73
2022-07-30T02:59:26.785Z,4.80
2022-07-30T03:01:54.123Z,2.80
2022-07-30T03:04:21.143Z,2.40
2022-07-30T03:06:49.490Z,3.83
2022-07-30T03:09:17.995Z,6.90
2022-07-30T03:11:44.984Z,3.37
2022-07-30T03:14:11.545Z,5.10
2022-07-30T03:16:38.738Z,2.67
2022-07-30T03:19:07.639Z,7.13
2022-07-30T03:21:35.824Z,2.53
2022-07-30T03:24:03.745Z,5.83
2022-07-30T03:26:31.287Z,6.90
2022-07-30T03:28:58.117Z,3.70
2022-07-30T03:31:24.782Z,11.13
2022-07-30T03:33:55.583Z,5.60
2022-07-30T03:36:22.646Z,3.57
2022-07-30T03:38:49.926Z,3.53
2022-07-30T03:41:16.832Z,4.10
2022-07-30T03:43:43.596Z,3.37
2022-07-30T03:46:10.840Z,3.83
2022-07-30T03:48:41.054Z,5.77
2022-07-30T03:51:10.310Z,2.30
2022-07-30T03:53:37.165Z,4.00
2022-07-30T03:56:04.887Z,4.80
2022-07-30T03:58:35.824Z,3.53
2022-07-30T04:01:03.086Z,5.80
2022-07-30T04:03:33.263Z,4.07
2022-07-30T04:06:00.656Z,3.30
2022-07-30T04:08:29.905Z,5.57
2022-07-30T04:10:56.904Z,4.47
2022-07-30T04:13:23.450Z,2.30
2022-07-30T04:16:05.852Z,4.53
2022-07-30T04:18:49.383Z,6.40
2022-07-30T04:21:18.323Z,3.70
2022-07-30T04:24:01.869Z,2.73
2022-07-30T04:26:33.403Z,5.90
2022-07-30T04:29:00.664Z,2.80
2022-07-30T04:31:28.260Z,5.97
2022-07-30T04:33:55.244Z,6.80
2022-07-30T04:36:25.503Z,2.70
2022-07-30T04:38:52.040Z,3.70
2022-07-30T04:41:18.665Z,5.37
2022-07-30T04:43:45.209Z,2.57
2022-07-30T04:46:11.844Z,2.50
2022-07-30T04:48:38.705Z,4.97
2022-07-30T04:51:28.613Z,5.50
2022-07-30T04:53:56.333Z,8.03
2022-07-30T04:56:23.389Z,1.67
2022-07-30T04:58:51.008Z,4.20
2022-07-30T05:01:35.916Z,3.60
2022-07-30T05:04:08.703Z,4.70
2022-07-30T05:06:35.744Z,3.40
2022-07-30T05:09:02.803Z,4.33
2022-07-30T05:11:29.510Z,4.17
2022-07-30T05:13:56.157Z,3.73
2022-07-30T05:16:22.864Z,3.47
2022-07-30T05:18:49.436Z,3.13
2022-07-30T05:21:16.465Z,4.63
2022-07-30T05:23:50.542Z,9.90
2022-07-30T05:26:20.983Z,4.80
2022-07-30T05:28:52.036Z,5.67
2022-07-30T05:31:20.257Z,3.53
2022-07-30T05:33:47.985Z,4.83
2022-07-30T05:36:14.619Z,4.83
2022-07-30T05:38:41.223Z,3.30
2022-07-30T05:41:32.361Z,4.07
2022-07-30T05:43:55.962Z,4.83
2022-07-30T05:46:23.661Z,2.27
2022-07-30T05:48:50.404Z,3.03
2022-07-30T05:51:18.813Z,5.13
2022-07-30T05:53:45.500Z,5.07
2022-07-30T05:56:12.056Z,4.83
2022-07-30T05:58:38.660Z,6.13
2022-07-30T06:01:05.473Z,4.60
2022-07-30T06:03:31.976Z,12.83
2022-07-30T06:05:58.476Z,6.90
2022-07-30T06:08:25.090Z,4.73
2022-07-30T06:10:51.548Z,3.73
2022-07-30T06:13:18.049Z,10.00
2022-07-30T06:15:44.916Z,8.17
2022-07-30T06:18:11.465Z,5.43
2022-07-30T06:20:37.967Z,5.23
2022-07-30T06:23:04.700Z,3.70
2022-07-30T06:25:31.373Z,4.67
2022-07-30T06:27:57.888Z,5.33
2022-07-30T06:30:30.355Z,5.47
2022-07-30T06:32:58.037Z,5.03
2022-07-30T06:35:24.542Z,7.60
2022-07-30T06:38:05.865Z,3.40
2022-07-30T06:40:34.554Z,3.60
2022-07-30T06:43:01.265Z,6.30
2022-07-30T06:45:27.907Z,5.43
2022-07-30T06:47:58.582Z,4.53
2022-07-30T06:50:25.937Z,8.23
2022-07-30T06:52:52.621Z,4.77
2022-07-30T06:55:19.319Z,6.67
2022-07-30T06:57:45.884Z,7.40
2022-07-30T07:00:12.852Z,4.57
2022-07-30T07:02:39.507Z,5.63
2022-07-30T07:05:07.473Z,7.43
2022-07-30T07:07:42.968Z,6.63
2022-07-30T07:10:13.302Z,3.23
2022-07-30T07:12:40.109Z,6.20
2022-07-30T07:15:07.353Z,9.07
2022-07-30T07:17:33.977Z,5.63
2022-07-30T07:20:02.560Z,4.93
2022-07-30T07:22:29.683Z,8.63
2022-07-30T07:24:56.523Z,4.30
2022-07-30T07:27:23.062Z,4.70
2022-07-30T07:30:05.038Z,3.00
2022-07-30T07:32:33.335Z,5.33
2022-07-30T07:35:03.038Z,4.13
2022-07-30T07:37:29.620Z,8.77
2022-07-30T07:39:56.325Z,6.70
2022-07-30T07:42:23.085Z,6.57
2022-07-30T07:44:49.599Z,6.20
2022-07-30T07:47:16.509Z,4.23
2022-07-30T07:49:43.050Z,3.47
2022-07-30T07:52:09.585Z,5.47
2022-07-30T07:54:36.185Z,6.57
2022-07-30T07:57:04.464Z,8.60
2022-07-30T07:59:35.877Z,4.87
2022-07-30T08:02:06.408Z,6.97
2022-07-30T08:04:34.552Z,9.97
2022-07-30T08:07:01.493Z,5.80
2022-07-30T08:09:43.470Z,7.90
2022-07-30T08:12:11.189Z,5.33
2022-07-30T08:14:38.261Z,4.80
2022-07-30T08:17:05.253Z,6.60
2022-07-30T08:19:32.260Z,6.00
2022-07-30T08:21:59.909Z,5.50
2022-07-30T08:24:27.019Z,5.20
2022-07-30T08:26:53.827Z,4.63
2022-07-30T08:29:20.581Z,6.83
2022-07-30T08:31:47.132Z,5.30
2022-07-30T08:34:13.885Z,5.17
2022-07-30T08:36:41.157Z,7.63
2022-07-30T08:39:08.611Z,9.70
2022-07-30T08:41:36.518Z,6.67
2022-07-30T08:44:06.831Z,8.70
2022-07-30T08:46:36.629Z,4.33
2022-07-30T08:49:07.732Z,4.47
2022-07-30T08:51:36.813Z,5.03
2022-07-30T08:54:04.862Z,4.27
2022-07-30T08:56:32.599Z,3.67
2022-07-30T08:59:00.383Z,7.57
2022-07-30T09:01:27.072Z,5.87
2022-07-30T09:03:54.993Z,5.43
2022-07-30T09:06:21.801Z,5.30
2022-07-30T09:08:48.544Z,6.00
2022-07-30T09:11:15.823Z,7.33
2022-07-30T09:13:44.575Z,5.47
2022-07-30T09:16:26.882Z,6.43
2022-07-30T09:18:54.588Z,10.67
2022-07-30T09:21:26.048Z,6.93
2022-07-30T09:24:08.175Z,7.83
2022-07-30T09:27:03.577Z,9.83
2022-07-30T09:29:31.683Z,2.87
2022-07-30T09:32:04.978Z,5.53
2022-07-30T09:34:34.354Z,6.40
2022-07-30T09:37:17.057Z,9.23
2022-07-30T09:39:59.542Z,6.20
2022-07-30T09:42:28.200Z,9.13
2022-07-30T09:45:09.196Z,5.90
2022-07-30T09:47:38.211Z,5.60
2022-07-30T09:50:13.087Z,6.53
2022-07-30T09:52:48.942Z,2.10
2022-07-30T09:55:30.023Z,9.43
2022-07-30T09:58:04.802Z,8.80
2022-07-30T10:00:33.492Z,4.73
2022-07-30T10:03:00.710Z,7.90
2022-07-30T10:05:39.405Z,5.27
2022-07-30T10:08:09.295Z,5.63
2022-07-30T10:10:47.106Z,5.53
2022-07-30T10:13:20.740Z,5.50
2022-07-30T10:15:49.699Z,4.60
2022-07-30T10:18:16.509Z,5.63
2022-07-30T10:20:45.002Z,5.60
2022-07-30T10:23:15.922Z,9.57
2022-07-30T10:25:50.155Z,8.97
2022-07-30T10:28:22.502Z,11.57
2022-07-30T10:30:51.753Z,5.80
2022-07-30T10:33:34.972Z,8.43
2022-07-30T10:36:04.499Z,4.40
2022-07-30T10:38:39.401Z,3.53
2022-07-30T10:41:42.783Z,8.30
2022-07-30T10:44:43.929Z,6.70
2022-07-30T10:47:14.198Z,5.30
2022-07-30T10:49:43.016Z,6.80
2022-07-30T10:52:10.395Z,8.87
2022-07-30T10:54:40.226Z,7.97
2022-07-30T10:57:22.703Z,6.03
2022-07-30T11:00:01.158Z,4.93
2022-07-30T11:02:35.828Z,12.10
2022-07-30T11:05:17.939Z,7.47
2022-07-30T11:07:47.264Z,5.17
2022-07-30T11:10:39.667Z,4.57
2022-07-30T11:13:07.697Z,6.60
2022-07-30T11:15:54.654Z,6.90
2022-07-30T11:18:25.025Z,5.77
2022-07-30T11:21:20.781Z,7.33
2022-07-30T11:23:49.431Z,3.97
2022-07-30T11:26:38.527Z,8.20
2022-07-30T11:29:08.838Z,4.63
2022-07-30T11:31:58.536Z,4.83
2022-07-30T11:34:26.043Z,4.60
2022-07-30T11:37:21.663Z,7.43
2022-07-30T11:39:58.145Z,6.23
2022-07-30T11:42:32.856Z,4.00
2022-07-30T11:45:18.177Z,8.60
2022-07-30T11:47:49.404Z,5.03
2022-07-30T11:50:21.329Z,6.50
2022-07-30T11:52:55.344Z,8.93
2022-07-30T11:55:30.518Z,7.90
2022-07-30T11:57:57.617Z,7.97
2022-07-30T12:00:24.732Z,6.73
2022-07-30T12:02:51.799Z,6.63
2022-07-30T12:05:26.194Z,6.67
2022-07-30T12:07:59.248Z,6.20
2022-07-30T12:10:26.952Z,8.37
2022-07-30T12:13:08.002Z,7.20
2022-07-30T12:15:37.022Z,12.00
2022-07-30T12:18:25.825Z,10.57
2022-07-30T12:20:55.267Z,12.80
2022-07-30T12:23:24.746Z,8.47
2022-07-30T12:25:51.769Z,7.53
2022-07-30T12:28:22.933Z,9.87
2022-07-30T12:30:50.045Z,9.43
2022-07-30T12:33:16.868Z,10.40
2022-07-30T12:35:47.957Z,6.37
2022-07-30T12:38:15.488Z,8.17
2022-07-30T12:41:03.041Z,6.77
2022-07-30T12:43:48.077Z,6.93
2022-07-30T12:46:22.382Z,11.13
2022-07-30T12:49:21.682Z,6.47
2022-07-30T12:52:00.201Z,7.40
2022-07-30T12:54:27.728Z,11.63
2022-07-30T12:57:06.932Z,11.00
2022-07-30T12:59:35.362Z,6.33
2022-07-30T13:02:03.970Z,9.37
2022-07-30T13:04:33.435Z,7.27
2022-07-30T13:07:06.930Z,6.67
2022-07-30T13:09:33.683Z,6.90
2022-07-30T13:12:00.437Z,9.90
2022-07-30T13:14:27.169Z,6.70
2022-07-30T13:16:56.311Z,6.60
2022-07-30T13:19:23.806Z,9.53
2022-07-30T13:21:50.292Z,10.30
2022-07-30T13:24:18.470Z,7.90
2022-07-30T13:26:45.587Z,10.97
2022-07-30T13:29:13.678Z,11.53
2022-07-30T13:31:43.031Z,6.77
2022-07-30T13:34:10.182Z,13.33
2022-07-30T13:36:36.710Z,8.93
2022-07-30T13:39:04.042Z,8.47
2022-07-30T13:41:30.628Z,8.03
2022-07-30T13:43:57.299Z,8.40
2022-07-30T13:46:23.985Z,7.07
2022-07-30T13:48:50.563Z,9.33
2022-07-30T13:51:17.096Z,9.73
2022-07-30T13:53:43.713Z,9.63
2022-07-30T13:56:12.839Z,7.83
2022-07-30T13:58:40.058Z,9.43
2022-07-30T14:01:07.466Z,10.60
2022-07-30T14:03:35.241Z,7.80
2022-07-30T14:06:10.904Z,9.97
2022-07-30T14:08:38.851Z,13.73
2022-07-30T14:11:05.431Z,10.50
2022-07-30T14:13:32.038Z,8.50
2022-07-30T14:15:58.815Z,11.27
2022-07-30T14:18:25.487Z,10.57
2022-07-30T14:20:53.699Z,10.40
2022-07-30T14:23:20.712Z,11.17
2022-07-30T14:25:47.474Z,10.20
2022-07-30T14:28:15.450Z,13.83
2022-07-30T14:30:42.588Z,11.33
2022-07-30T14:33:09.309Z,10.37
2022-07-30T14:35:35.858Z,10.67
2022-07-30T14:38:04.203Z,10.10
2022-07-30T14:40:30.891Z,9.33
2022-07-30T14:42:57.973Z,8.43
2022-07-30T14:45:25.637Z,7.03
2022-07-30T14:47:52.516Z,7.70
2022-07-30T14:50:19.147Z,5.50
2022-07-30T14:52:47.552Z,9.00
2022-07-30T14:55:14.234Z,10.83
2022-07-30T14:57:40.771Z,8.70
2022-07-30T15:00:10.782Z,11.57
2022-07-30T15:02:37.676Z,8.57
2022-07-30T15:05:04.521Z,9.43
2022-07-30T15:07:31.147Z,13.83
2022-07-30T15:10:01.395Z,9.07
2022-07-30T15:12:28.058Z,12.53
2022-07-30T15:14:54.922Z,7.03
2022-07-30T15:17:22.123Z,10.40
2022-07-30T15:19:51.532Z,10.00
2022-07-30T15:22:21.611Z,8.20
2022-07-30T15:24:48.774Z,7.53
2022-07-30T15:27:15.331Z,5.47
2022-07-30T15:29:41.903Z,9.07
2022-07-30T15:32:08.445Z,7.17
2022-07-30T15:34:35.109Z,7.43
2022-07-30T15:37:02.856Z,10.93
2022-07-30T15:39:32.192Z,4.17
2022-07-30T15:41:59.296Z,4.30
2022-07-30T15:44:26.082Z,4.37
2022-07-30T15:46:52.724Z,6.33
2022-07-30T15:49:19.339Z,6.03
2022-07-30T15:51:48.884Z,7.10
2022-07-30T15:54:16.632Z,4.97
2022-07-30T15:56:49.919Z,6.30
2022-07-30T15:59:16.400Z,6.33
2022-07-30T16:01:44.038Z,6.27
2022-07-30T16:04:18.984Z,7.80
2022-07-30T16:06:46.440Z,4.63
2022-07-30T16:09:13.798Z,6.40
2022-07-30T16:11:41.688Z,8.70
2022-07-30T16:14:09.118Z,8.13
2022-07-30T16:16:35.749Z,4.47
2022-07-30T16:19:02.795Z,4.47
2022-07-30T16:21:29.332Z,5.00
2022-07-30T16:23:56.769Z,7.90
2022-07-30T16:26:23.428Z,5.37
2022-07-30T16:28:50.301Z,6.20
2022-07-30T16:31:17.534Z,3.60
2022-07-30T16:33:44.022Z,6.97
2022-07-30T16:36:11.149Z,4.77
2022-07-30T16:38:37.760Z,8.47
2022-07-30T16:41:04.579Z,9.87
2022-07-30T16:43:31.992Z,6.93
2022-07-30T16:45:59.627Z,5.70
2022-07-30T16:48:26.342Z,6.77
2022-07-30T16:50:53.652Z,9.40
2022-07-30T16:53:20.632Z,6.47
2022-07-30T16:55:47.288Z,6.77
2022-07-30T16:58:14.086Z,5.13
2022-07-30T17:00:41.075Z,9.77
2022-07-30T17:03:07.786Z,11.07
2022-07-30T17:05:34.394Z,7.77
2022-07-30T17:08:01.235Z,7.13
2022-07-30T17:10:27.976Z,3.53
2022-07-30T17:12:57.160Z,5.87
2022-07-30T17:15:32.185Z,4.73
2022-07-30T17:18:00.521Z,4.30
2022-07-30T17:20:27.371Z,6.53
2022-07-30T17:22:57.975Z,5.27
2022-07-30T17:25:28.081Z,4.07
2022-07-30T17:27:56.232Z,6.60
2022-07-30T17:30:23.605Z,11.20
2022-07-30T17:32:50.477Z,5.27
2022-07-30T17:35:17.171Z,3.80
2022-07-30T17:37:43.988Z,6.10
2022-07-30T17:40:30.247Z,4.13
2022-07-30T17:43:05.976Z,7.00
2022-07-30T17:45:34.430Z,7.03
2022-07-30T17:48:04.375Z,5.07
2022-07-30T17:50:32.495Z,10.73
2022-07-30T17:52:59.598Z,5.43
2022-07-30T17:55:28.117Z,5.00
2022-07-30T17:57:54.783Z,8.83
2022-07-30T18:00:21.491Z,9.97
2022-07-30T18:02:48.433Z,8.50
2022-07-30T18:05:15.698Z,7.40
2022-07-30T18:07:43.689Z,8.27
2022-07-30T18:10:11.228Z,6.27
2022-07-30T18:12:38.311Z,10.83
2022-07-30T18:15:06.341Z,7.33
2022-07-30T18:17:32.971Z,8.30
2022-07-30T18:19:59.647Z,9.07
2022-07-30T18:22:29.460Z,6.63
2022-07-30T18:24:56.868Z,8.30
2022-07-30T18:27:23.616Z,10.57
2022-07-30T18:29:50.170Z,5.63
2022-07-30T18:32:16.713Z,8.30
2022-07-30T18:34:43.359Z,7.83
2022-07-30T18:37:09.927Z,9.53
2022-07-30T18:39:36.443Z,7.17
2022-07-30T18:42:04.428Z,12.27
2022-07-30T18:44:31.353Z,5.63
2022-07-30T18:46:57.827Z,6.83
2022-07-30T18:49:36.698Z,9.20
2022-07-30T18:52:04.705Z,10.50
2022-07-30T18:54:31.655Z,9.33
2022-07-30T18:56:58.145Z,10.87
2022-07-30T18:59:24.727Z,14.13
2022-07-30T19:01:51.247Z,9.60
2022-07-30T19:04:17.755Z,7.70
2022-07-30T19:06:44.592Z,11.10
2022-07-30T19:09:17.204Z,5.97
2022-07-30T19:11:44.624Z,7.30
2022-07-30T19:14:12.910Z,9.77
2022-07-30T19:16:39.861Z,7.13
2022-07-30T19:19:06.340Z,12.23
2022-07-30T19:21:33.104Z,10.57
2022-07-30T19:23:59.788Z,9.03
2022-07-30T19:26:26.423Z,7.07
2022-07-30T19:28:53.062Z,7.10
2022-07-30T19:31:19.745Z,9.60
2022-07-30T19:33:46.240Z,7.30
2022-07-30T19:36:15.104Z,10.40
2022-07-30T19:38:44.239Z,4.70
2022-07-30T19:41:12.220Z,9.70
2022-07-30T19:43:40.743Z,10.30
2022-07-30T19:46:07.356Z,9.13
2022-07-30T19:48:37.194Z,19.40
2022-07-30T19:51:04.643Z,10.77
2022-07-30T19:53:34.366Z,10.57
2022-07-30T19:56:04.536Z,12.23
2022-07-30T19:58:37.288Z,7.80
2022-07-30T20:01:08.297Z,6.93
2022-07-30T20:03:35.755Z,10.17
2022-07-30T20:06:07.282Z,7.10
2022-07-30T20:08:36.807Z,14.23
2022-07-30T20:11:07.317Z,7.80
2022-07-30T20:13:45.122Z,8.47
2022-07-30T20:16:16.153Z,8.40
2022-07-30T20:18:44.448Z,10.53
2022-07-30T20:21:15.482Z,8.53
2022-07-30T20:23:43.276Z,7.70
2022-07-30T20:26:13.748Z,7.43
2022-07-30T20:28:41.906Z,7.10
2022-07-30T20:31:08.592Z,7.03
2022-07-30T20:33:37.974Z,10.07
2022-07-30T20:36:06.127Z,11.33
2022-07-30T20:38:38.649Z,9.00
2022-07-30T20:41:10.090Z,7.43
2022-07-30T20:43:46.129Z,6.37
2022-07-30T20:46:20.132Z,4.83
2022-07-30T20:48:46.884Z,8.70
2022-07-30T20:51:13.650Z,11.13
2022-07-30T20:53:41.993Z,5.40
2022-07-30T20:56:12.326Z,4.33
2022-07-30T20:58:40.258Z,10.07
2022-07-30T21:01:07.701Z,9.43
2022-07-30T21:03:34.234Z,5.70
2022-07-30T21:06:02.725Z,12.03
2022-07-30T21:08:29.425Z,7.63
2022-07-30T21:10:57.511Z,9.30
2022-07-30T21:13:27.062Z,12.33
2022-07-30T21:16:02.211Z,7.40
2022-07-30T21:18:30.050Z,17.37
2022-07-30T21:20:57.319Z,15.57
2022-07-30T21:23:23.923Z,11.93
2022-07-30T21:26:00.875Z,9.87
2022-07-30T21:28:30.095Z,8.33
2022-07-30T21:31:02.829Z,14.00
2022-07-30T21:33:31.040Z,8.00
2022-07-30T21:35:58.264Z,9.77
2022-07-30T21:38:26.623Z,10.77
2022-07-30T21:40:53.686Z,10.47
2022-07-30T21:43:29.440Z,10.77
2022-07-30T21:45:56.459Z,10.13
2022-07-30T21:48:24.161Z,11.57
2022-07-30T21:50:50.628Z,11.97
2022-07-30T21:53:17.273Z,13.13
2022-07-30T21:55:59.647Z,10.43
2022-07-30T21:58:26.680Z,8.27
2022-07-30T22:00:54.985Z,10.07
2022-07-30T22:04:03.144Z,9.07
2022-07-30T22:08:55.258Z,12.87
2022-07-30T22:11:22.319Z,10.40
2022-07-30T22:13:51.390Z,12.97
2022-07-30T22:16:21.747Z,15.97
2022-07-30T22:18:48.761Z,19.53
2022-07-30T22:21:15.467Z,15.43
2022-07-30T22:23:58.151Z,20.93
2022-07-30T22:26:26.784Z,22.90
2022-07-30T22:28:54.415Z,17.27
2022-07-30T22:31:21.112Z,21.50
2022-07-30T22:33:47.764Z,33.77
2022-07-30T22:36:17.799Z,31.40
2022-07-30T22:38:58.617Z,36.60
2022-07-30T22:41:25.969Z,26.20
2022-07-30T22:43:55.789Z,28.27
2022-07-30T22:46:30.924Z,29.60
2022-07-30T22:48:59.344Z,21.57
2022-07-30T22:54:13.413Z,20.07
2022-07-30T22:56:40.375Z,24.17
2022-07-30T22:59:06.843Z,27.57
2022-07-30T23:01:33.587Z,23.83
2022-07-30T23:04:01.469Z,20.40
2022-07-30T23:06:28.182Z,23.17
2022-07-30T23:08:56.744Z,20.33
2022-07-30T23:11:23.289Z,21.43
2022-07-30T23:12:28.283Z,11.43
2022-07-30T23:12:34.690Z,21.87
2022-07-30T23:13:53.611Z,20.03
2022-07-30T23:16:20.373Z,27.43
2022-07-30T23:18:46.967Z,21.07
2022-07-30T23:21:14.102Z,25.07
2022-07-30T23:23:40.772Z,37.27
2022-07-30T23:26:08.461Z,49.67
2022-07-30T23:28:35.791Z,44.33
2022-07-30T23:31:03.922Z,39.33
2022-07-30T23:33:31.239Z,32.30
2022-07-30T23:36:00.081Z,32.13
2022-07-30T23:38:27.076Z,24.10
2022-07-30T23:40:54.053Z,23.00
2022-07-30T23:43:20.609Z,22.53
2022-07-30T23:45:47.279Z,23.33
2022-07-30T23:48:14.957Z,26.17
2022-07-30T23:50:41.605Z,23.33
2022-07-30T23:53:08.273Z,22.90
2022-07-30T23:55:35.967Z,21.57
2022-07-30T23:58:03.855Z,23.77
